sensor_id;sensor_type;location;lat;lon;timestamp;temperature;humidity
20422;DHT22;10370;53.102;18.034;2024-03-23T00:57:30;9.10;99.90
20422;DHT22;10370;53.102;18.034;2024-03-23T01:02:51;9.00;99.90
20422;DHT22;10370;53.102;18.034;2024-03-23T01:08:22;9.00;99.90
20422;DHT22;10370;53.102;18.034;2024-03-23T01:13:43;8.90;99.90
20422;DHT22;10370;53.102;18.034;2024-03-23T01:19:05;8.80;99.90
20422;DHT22;10370;53.102;18.034;2024-03-23T01:24:27;8.80;99.90
20422;DHT22;10370;53.102;18.034;2024-03-23T01:29:48;8.70;99.90
20422;DHT22;10370;53.102;18.034;2024-03-23T01:35:10;8.70;99.90
20422;DHT22;10370;53.102;18.034;2024-03-23T01:40:32;8.70;99.90
20422;DHT22;10370;53.102;18.034;2024-03-23T01:45:53;8.60;99.90
20422;DHT22;10370;53.102;18.034;2024-03-23T01:51:15;8.60;99.90
20422;DHT22;10370;53.102;18.034;2024-03-23T01:56:36;8.60;99.90
20422;DHT22;10370;53.102;18.034;2024-03-23T02:02:03;8.60;99.90
20422;DHT22;10370;53.102;18.034;2024-03-23T02:07:09;8.50;99.90
20422;DHT22;10370;53.102;18.034;2024-03-23T02:12:31;8.50;99.90
20422;DHT22;10370;53.102;18.034;2024-03-23T02:17:53;8.40;99.90
20422;DHT22;10370;53.102;18.034;2024-03-23T02:23:16;8.40;99.90
20422;DHT22;10370;53.102;18.034;2024-03-23T02:28:39;8.30;99.90
20422;DHT22;10370;53.102;18.034;2024-03-23T02:34:00;8.30;99.90
20422;DHT22;10370;53.102;18.034;2024-03-23T02:39:22;8.20;99.90
20422;DHT22;10370;53.102;18.034;2024-03-23T02:44:45;8.20;99.90
20422;DHT22;10370;53.102;18.034;2024-03-23T02:50:09;8.10;99.90
20422;DHT22;10370;53.102;18.034;2024-03-23T02:55:30;8.10;99.90
20422;DHT22;10370;53.102;18.034;2024-03-23T03:00:52;8.10;99.90
20422;DHT22;10370;53.102;18.034;2024-03-23T03:06:25;8.10;99.90
20422;DHT22;10370;53.102;18.034;2024-03-23T03:11:47;8.10;99.90
20422;DHT22;10370;53.102;18.034;2024-03-23T03:17:08;8.00;99.90
20422;DHT22;10370;53.102;18.034;2024-03-23T03:22:30;8.00;99.90
20422;DHT22;10370;53.102;18.034;2024-03-23T03:27:51;8.00;99.90
20422;DHT22;10370;53.102;18.034;2024-03-23T03:33:13;8.00;99.90
20422;DHT22;10370;53.102;18.034;2024-03-23T03:38:34;8.00;99.90
20422;DHT22;10370;53.102;18.034;2024-03-23T03:43:56;8.00;99.90
20422;DHT22;10370;53.102;18.034;2024-03-23T03:49:22;8.00;99.90
20422;DHT22;10370;53.102;18.034;2024-03-23T03:54:44;7.90;99.90
20422;DHT22;10370;53.102;18.034;2024-03-23T04:00:07;7.90;99.90
20422;DHT22;10370;53.102;18.034;2024-03-23T04:05:32;7.80;99.90
20422;DHT22;10370;53.102;18.034;2024-03-23T04:10:54;7.80;99.90
20422;DHT22;10370;53.102;18.034;2024-03-23T04:16:34;7.80;99.90
20422;DHT22;10370;53.102;18.034;2024-03-23T04:21:56;7.80;99.90
20422;DHT22;10370;53.102;18.034;2024-03-23T04:27:18;7.70;99.90
20422;DHT22;10370;53.102;18.034;2024-03-23T04:32:39;7.70;99.90
20422;DHT22;10370;53.102;18.034;2024-03-23T04:38:01;7.70;99.90
20422;DHT22;10370;53.102;18.034;2024-03-23T04:43:23;7.70;99.90
20422;DHT22;10370;53.102;18.034;2024-03-23T04:48:44;7.60;99.90
20422;DHT22;10370;53.102;18.034;2024-03-23T04:54:05;7.60;99.90
20422;DHT22;10370;53.102;18.034;2024-03-23T04:59:27;7.60;99.90
20422;DHT22;10370;53.102;18.034;2024-03-23T05:04:48;7.60;99.90
20422;DHT22;10370;53.102;18.034;2024-03-23T05:10:10;7.60;99.90
20422;DHT22;10370;53.102;18.034;2024-03-23T05:15:32;7.60;99.90
20422;DHT22;10370;53.102;18.034;2024-03-23T05:21:00;7.60;99.90
20422;DHT22;10370;53.102;18.034;2024-03-23T05:26:24;7.60;99.90
20422;DHT22;10370;53.102;18.034;2024-03-23T05:31:52;7.60;99.90
20422;DHT22;10370;53.102;18.034;2024-03-23T05:37:13;7.60;99.90
20422;DHT22;10370;53.102;18.034;2024-03-23T05:42:35;7.60;99.90
20422;DHT22;10370;53.102;18.034;2024-03-23T05:47:56;7.60;99.90
20422;DHT22;10370;53.102;18.034;2024-03-23T05:53:19;7.60;99.90
20422;DHT22;10370;53.102;18.034;2024-03-23T05:58:51;7.60;99.90
20422;DHT22;10370;53.102;18.034;2024-03-23T06:04:15;7.80;99.90
20422;DHT22;10370;53.102;18.034;2024-03-23T06:09:37;7.80;99.90
20422;DHT22;10370;53.102;18.034;2024-03-23T06:14:58;7.80;99.90
20422;DHT22;10370;53.102;18.034;2024-03-23T06:20:20;7.90;99.90
20422;DHT22;10370;53.102;18.034;2024-03-23T06:25:41;7.80;99.90
20422;DHT22;10370;53.102;18.034;2024-03-23T06:31:05;7.80;99.90
20422;DHT22;10370;53.102;18.034;2024-03-23T06:36:29;7.80;99.90
20422;DHT22;10370;53.102;18.034;2024-03-23T06:41:53;7.80;99.90
20422;DHT22;10370;53.102;18.034;2024-03-23T06:47:14;7.80;99.90
20422;DHT22;10370;53.102;18.034;2024-03-23T06:52:36;7.70;99.90
20422;DHT22;10370;53.102;18.034;2024-03-23T06:57:58;7.70;99.90
20422;DHT22;10370;53.102;18.034;2024-03-23T07:03:20;7.70;99.90
20422;DHT22;10370;53.102;18.034;2024-03-23T07:08:43;7.70;99.90
20422;DHT22;10370;53.102;18.034;2024-03-23T07:14:04;7.70;99.90
20422;DHT22;10370;53.102;18.034;2024-03-23T07:19:28;7.70;99.90
20422;DHT22;10370;53.102;18.034;2024-03-23T07:24:50;7.70;99.90
20422;DHT22;10370;53.102;18.034;2024-03-23T07:30:13;7.70;99.90
20422;DHT22;10370;53.102;18.034;2024-03-23T07:35:53;7.70;99.90
20422;DHT22;10370;53.102;18.034;2024-03-23T07:41:26;7.70;99.90
20422;DHT22;10370;53.102;18.034;2024-03-23T07:46:56;7.70;99.90
20422;DHT22;10370;53.102;18.034;2024-03-23T07:52:18;7.70;99.90
20422;DHT22;10370;53.102;18.034;2024-03-23T07:57:43;7.70;99.90
20422;DHT22;10370;53.102;18.034;2024-03-23T08:03:05;7.60;99.90
20422;DHT22;10370;53.102;18.034;2024-03-23T08:08:27;7.60;99.90
20422;DHT22;10370;53.102;18.034;2024-03-23T08:14:00;7.40;99.90
20422;DHT22;10370;53.102;18.034;2024-03-23T08:19:22;7.30;99.90
20422;DHT22;10370;53.102;18.034;2024-03-23T08:24:52;7.30;99.90
20422;DHT22;10370;53.102;18.034;2024-03-23T08:30:14;7.30;99.90
20422;DHT22;10370;53.102;18.034;2024-03-23T08:35:36;7.40;99.90
20422;DHT22;10370;53.102;18.034;2024-03-23T08:46:52;7.40;99.90
20422;DHT22;10370;53.102;18.034;2024-03-23T08:52:17;7.30;99.90
20422;DHT22;10370;53.102;18.034;2024-03-23T08:57:38;7.40;99.90
20422;DHT22;10370;53.102;18.034;2024-03-23T09:03:00;7.50;99.90
20422;DHT22;10370;53.102;18.034;2024-03-23T09:08:26;7.50;99.90
20422;DHT22;10370;53.102;18.034;2024-03-23T09:13:48;7.30;99.90
20422;DHT22;10370;53.102;18.034;2024-03-23T09:19:10;7.10;99.90
20422;DHT22;10370;53.102;18.034;2024-03-23T09:24:32;7.10;99.90
20422;DHT22;10370;53.102;18.034;2024-03-23T09:29:54;7.00;99.90
20422;DHT22;10370;53.102;18.034;2024-03-23T09:35:16;7.00;99.90
20422;DHT22;10370;53.102;18.034;2024-03-23T09:40:41;7.10;99.90
20422;DHT22;10370;53.102;18.034;2024-03-23T09:46:03;7.00;99.90
20422;DHT22;10370;53.102;18.034;2024-03-23T09:51:25;7.00;99.90
20422;DHT22;10370;53.102;18.034;2024-03-23T09:56:47;7.00;99.90
20422;DHT22;10370;53.102;18.034;2024-03-23T10:07:37;6.70;99.90
20422;DHT22;10370;53.102;18.034;2024-03-23T10:12:58;6.70;99.90
20422;DHT22;10370;53.102;18.034;2024-03-23T10:18:20;6.80;99.90
20422;DHT22;10370;53.102;18.034;2024-03-23T10:23:44;6.70;99.90
20422;DHT22;10370;53.102;18.034;2024-03-23T10:29:07;6.70;99.90
20422;DHT22;10370;53.102;18.034;2024-03-23T10:34:32;6.70;99.90
20422;DHT22;10370;53.102;18.034;2024-03-23T10:39:53;6.80;99.90
20422;DHT22;10370;53.102;18.034;2024-03-23T10:45:15;7.00;99.90
20422;DHT22;10370;53.102;18.034;2024-03-23T10:50:37;7.10;99.90
20422;DHT22;10370;53.102;18.034;2024-03-23T10:55:59;7.10;99.90
20422;DHT22;10370;53.102;18.034;2024-03-23T11:01:20;6.80;99.90
20422;DHT22;10370;53.102;18.034;2024-03-23T11:06:42;6.90;99.90
20422;DHT22;10370;53.102;18.034;2024-03-23T11:18:05;7.00;99.90
20422;DHT22;10370;53.102;18.034;2024-03-23T11:23:29;7.00;99.90
20422;DHT22;10370;53.102;18.034;2024-03-23T11:29:09;6.80;99.90
20422;DHT22;10370;53.102;18.034;2024-03-23T11:34:34;6.90;99.90
20422;DHT22;10370;53.102;18.034;2024-03-23T11:39:57;6.90;99.90
20422;DHT22;10370;53.102;18.034;2024-03-23T11:45:19;6.80;99.90
20422;DHT22;10370;53.102;18.034;2024-03-23T11:50:48;6.90;99.90
20422;DHT22;10370;53.102;18.034;2024-03-23T11:56:12;6.90;99.90
20422;DHT22;10370;53.102;18.034;2024-03-23T12:01:34;6.80;99.90
20422;DHT22;10370;53.102;18.034;2024-03-23T12:07:12;6.70;99.90
20422;DHT22;10370;53.102;18.034;2024-03-23T12:12:34;6.70;99.90
20422;DHT22;10370;53.102;18.034;2024-03-23T12:18:11;6.80;99.90
20422;DHT22;10370;53.102;18.034;2024-03-23T12:23:34;6.90;99.90
20422;DHT22;10370;53.102;18.034;2024-03-23T12:28:56;6.90;99.90
20422;DHT22;10370;53.102;18.034;2024-03-23T12:34:18;6.80;99.90
20422;DHT22;10370;53.102;18.034;2024-03-23T12:39:39;6.80;99.90
20422;DHT22;10370;53.102;18.034;2024-03-23T12:45:01;6.70;99.90
20422;DHT22;10370;53.102;18.034;2024-03-23T12:50:23;6.60;99.90
20422;DHT22;10370;53.102;18.034;2024-03-23T12:55:45;6.60;99.90
20422;DHT22;10370;53.102;18.034;2024-03-23T13:01:07;6.60;99.90
20422;DHT22;10370;53.102;18.034;2024-03-23T13:06:28;6.50;99.90
20422;DHT22;10370;53.102;18.034;2024-03-23T13:11:55;6.50;99.90
20422;DHT22;10370;53.102;18.034;2024-03-23T13:17:17;6.50;99.90
20422;DHT22;10370;53.102;18.034;2024-03-23T13:22:39;6.50;99.90
20422;DHT22;10370;53.102;18.034;2024-03-23T13:28:01;6.40;99.90
20422;DHT22;10370;53.102;18.034;2024-03-23T13:33:30;6.40;99.90
20422;DHT22;10370;53.102;18.034;2024-03-23T13:38:53;6.30;99.90
20422;DHT22;10370;53.102;18.034;2024-03-23T13:44:14;6.20;99.90
20422;DHT22;10370;53.102;18.034;2024-03-23T13:49:37;6.20;99.90
20422;DHT22;10370;53.102;18.034;2024-03-23T13:54:59;6.10;99.90
20422;DHT22;10370;53.102;18.034;2024-03-23T14:00:21;6.00;99.90
20422;DHT22;10370;53.102;18.034;2024-03-23T14:05:42;5.90;99.90
20422;DHT22;10370;53.102;18.034;2024-03-23T14:11:07;5.90;99.90
20422;DHT22;10370;53.102;18.034;2024-03-23T14:16:30;5.80;99.90
20422;DHT22;10370;53.102;18.034;2024-03-23T14:21:52;5.60;99.90
20422;DHT22;10370;53.102;18.034;2024-03-23T14:27:19;5.30;99.90
20422;DHT22;10370;53.102;18.034;2024-03-23T14:32:42;5.10;99.90
20422;DHT22;10370;53.102;18.034;2024-03-23T14:38:04;5.10;99.90
20422;DHT22;10370;53.102;18.034;2024-03-23T14:43:25;5.00;99.90
20422;DHT22;10370;53.102;18.034;2024-03-23T14:48:50;5.00;99.90
20422;DHT22;10370;53.102;18.034;2024-03-23T14:54:12;5.10;99.90
20422;DHT22;10370;53.102;18.034;2024-03-23T14:59:35;5.10;99.90
20422;DHT22;10370;53.102;18.034;2024-03-23T15:04:57;5.00;99.90
20422;DHT22;10370;53.102;18.034;2024-03-23T15:10:19;5.10;99.90
20422;DHT22;10370;53.102;18.034;2024-03-23T15:15:41;5.00;99.90
20422;DHT22;10370;53.102;18.034;2024-03-23T15:21:05;4.90;99.90
20422;DHT22;10370;53.102;18.034;2024-03-23T15:26:29;5.00;99.90
20422;DHT22;10370;53.102;18.034;2024-03-23T15:31:51;5.00;99.90
20422;DHT22;10370;53.102;18.034;2024-03-23T15:37:13;5.00;99.90
20422;DHT22;10370;53.102;18.034;2024-03-23T15:42:36;5.00;99.90
20422;DHT22;10370;53.102;18.034;2024-03-23T15:48:03;5.00;99.90
20422;DHT22;10370;53.102;18.034;2024-03-23T15:53:27;4.90;99.90
20422;DHT22;10370;53.102;18.034;2024-03-23T15:59:04;4.80;99.90
20422;DHT22;10370;53.102;18.034;2024-03-23T16:04:31;4.80;99.90
20422;DHT22;10370;53.102;18.034;2024-03-23T16:09:52;4.90;99.90
20422;DHT22;10370;53.102;18.034;2024-03-23T16:15:14;4.90;99.90
20422;DHT22;10370;53.102;18.034;2024-03-23T16:20:36;4.80;99.90
20422;DHT22;10370;53.102;18.034;2024-03-23T16:25:58;4.90;99.90
20422;DHT22;10370;53.102;18.034;2024-03-23T16:31:20;5.00;99.90
20422;DHT22;10370;53.102;18.034;2024-03-23T16:36:42;4.90;99.90
20422;DHT22;10370;53.102;18.034;2024-03-23T16:42:04;4.80;99.90
20422;DHT22;10370;53.102;18.034;2024-03-23T16:47:26;4.80;99.90
20422;DHT22;10370;53.102;18.034;2024-03-23T16:52:48;4.80;99.90
20422;DHT22;10370;53.102;18.034;2024-03-23T16:58:10;4.70;99.90
20422;DHT22;10370;53.102;18.034;2024-03-23T17:03:32;4.60;99.90
20422;DHT22;10370;53.102;18.034;2024-03-23T17:08:57;4.60;99.90
20422;DHT22;10370;53.102;18.034;2024-03-23T17:14:20;4.50;99.90
20422;DHT22;10370;53.102;18.034;2024-03-23T17:19:42;4.40;99.90
20422;DHT22;10370;53.102;18.034;2024-03-23T17:25:04;4.30;99.90
20422;DHT22;10370;53.102;18.034;2024-03-23T17:30:26;4.30;99.90
20422;DHT22;10370;53.102;18.034;2024-03-23T17:35:53;4.20;99.90
20422;DHT22;10370;53.102;18.034;2024-03-23T17:41:15;4.10;99.90
20422;DHT22;10370;53.102;18.034;2024-03-23T17:46:37;4.10;99.90
20422;DHT22;10370;53.102;18.034;2024-03-23T17:52:00;3.90;99.90
20422;DHT22;10370;53.102;18.034;2024-03-23T17:57:37;3.80;99.90
20422;DHT22;10370;53.102;18.034;2024-03-23T18:02:59;3.80;99.90
20422;DHT22;10370;53.102;18.034;2024-03-23T18:08:21;3.70;99.90
20422;DHT22;10370;53.102;18.034;2024-03-23T18:13:43;3.70;99.90
20422;DHT22;10370;53.102;18.034;2024-03-23T18:19:05;3.60;99.90
20422;DHT22;10370;53.102;18.034;2024-03-23T18:24:28;3.40;99.90
20422;DHT22;10370;53.102;18.034;2024-03-23T18:29:55;3.40;99.90
20422;DHT22;10370;53.102;18.034;2024-03-23T18:35:26;3.40;99.90
20422;DHT22;10370;53.102;18.034;2024-03-23T18:40:50;3.40;99.90
20422;DHT22;10370;53.102;18.034;2024-03-23T18:46:12;3.40;99.90
20422;DHT22;10370;53.102;18.034;2024-03-23T18:51:35;3.40;99.90
20422;DHT22;10370;53.102;18.034;2024-03-23T18:56:57;3.40;99.90
20422;DHT22;10370;53.102;18.034;2024-03-23T19:02:20;3.40;99.90
20422;DHT22;10370;53.102;18.034;2024-03-23T19:07:42;3.40;99.90
20422;DHT22;10370;53.102;18.034;2024-03-23T19:13:03;3.40;99.90
20422;DHT22;10370;53.102;18.034;2024-03-23T19:18:25;3.40;99.90
20422;DHT22;10370;53.102;18.034;2024-03-23T19:24:02;3.40;99.90
20422;DHT22;10370;53.102;18.034;2024-03-23T19:29:27;3.30;99.90
20422;DHT22;10370;53.102;18.034;2024-03-23T19:34:49;3.30;99.90
20422;DHT22;10370;53.102;18.034;2024-03-23T19:40:11;3.30;99.90
20422;DHT22;10370;53.102;18.034;2024-03-23T19:45:33;3.30;99.90
20422;DHT22;10370;53.102;18.034;2024-03-23T19:50:59;3.40;99.90
20422;DHT22;10370;53.102;18.034;2024-03-23T19:56:22;3.30;99.90
20422;DHT22;10370;53.102;18.034;2024-03-23T20:01:45;3.20;99.90
20422;DHT22;10370;53.102;18.034;2024-03-23T20:07:09;3.20;99.90
20422;DHT22;10370;53.102;18.034;2024-03-23T20:12:33;3.10;99.90
20422;DHT22;10370;53.102;18.034;2024-03-23T20:17:55;3.10;99.90
20422;DHT22;10370;53.102;18.034;2024-03-23T20:23:17;3.00;99.90
20422;DHT22;10370;53.102;18.034;2024-03-23T20:28:39;2.90;99.90
20422;DHT22;10370;53.102;18.034;2024-03-23T20:34:01;3.00;99.90
20422;DHT22;10370;53.102;18.034;2024-03-23T20:39:23;2.90;99.90
20422;DHT22;10370;53.102;18.034;2024-03-23T20:44:45;2.90;99.90
20422;DHT22;10370;53.102;18.034;2024-03-23T20:50:09;2.80;99.90
20422;DHT22;10370;53.102;18.034;2024-03-23T20:55:34;2.70;99.90
20422;DHT22;10370;53.102;18.034;2024-03-23T21:01:03;2.70;99.90
20422;DHT22;10370;53.102;18.034;2024-03-23T21:06:25;2.60;99.90
20422;DHT22;10370;53.102;18.034;2024-03-23T21:11:46;2.60;99.90
20422;DHT22;10370;53.102;18.034;2024-03-23T21:17:11;2.60;99.90
20422;DHT22;10370;53.102;18.034;2024-03-23T21:22:43;2.50;99.90
20422;DHT22;10370;53.102;18.034;2024-03-23T21:28:05;2.50;99.90
20422;DHT22;10370;53.102;18.034;2024-03-23T21:33:29;2.60;99.90
20422;DHT22;10370;53.102;18.034;2024-03-23T21:38:50;2.70;99.90
20422;DHT22;10370;53.102;18.034;2024-03-23T21:44:12;2.60;99.90
20422;DHT22;10370;53.102;18.034;2024-03-23T21:49:33;2.50;99.90
20422;DHT22;10370;53.102;18.034;2024-03-23T21:54:55;2.30;99.90
20422;DHT22;10370;53.102;18.034;2024-03-23T22:00:16;2.20;99.90
20422;DHT22;10370;53.102;18.034;2024-03-23T22:05:59;2.20;99.90
20422;DHT22;10370;53.102;18.034;2024-03-23T22:11:33;2.10;99.90
20422;DHT22;10370;53.102;18.034;2024-03-23T22:16:56;2.00;99.90
20422;DHT22;10370;53.102;18.034;2024-03-23T22:22:17;2.00;99.90
20422;DHT22;10370;53.102;18.034;2024-03-23T22:27:38;2.00;99.90
20422;DHT22;10370;53.102;18.034;2024-03-23T22:33:00;2.00;99.90
20422;DHT22;10370;53.102;18.034;2024-03-23T22:38:25;2.00;99.90
20422;DHT22;10370;53.102;18.034;2024-03-23T22:43:47;2.00;99.90
20422;DHT22;10370;53.102;18.034;2024-03-23T22:49:09;1.90;99.90
20422;DHT22;10370;53.102;18.034;2024-03-23T22:54:30;1.90;99.90
20422;DHT22;10370;53.102;18.034;2024-03-23T23:00:31;2.00;99.90
20422;DHT22;10370;53.102;18.034;2024-03-23T23:06:00;2.10;99.90
20422;DHT22;10370;53.102;18.034;2024-03-23T23:11:22;2.10;99.90
20422;DHT22;10370;53.102;18.034;2024-03-23T23:16:44;2.10;99.90
20422;DHT22;10370;53.102;18.034;2024-03-23T23:22:05;2.10;99.90
20422;DHT22;10370;53.102;18.034;2024-03-23T23:27:27;2.10;99.90
20422;DHT22;10370;53.102;18.034;2024-03-23T23:32:48;2.10;99.90
20422;DHT22;10370;53.102;18.034;2024-03-23T23:38:10;2.10;99.90
20422;DHT22;10370;53.102;18.034;2024-03-23T23:43:35;2.10;99.90
20422;DHT22;10370;53.102;18.034;2024-03-23T23:48:56;2.20;99.90
20422;DHT22;10370;53.102;18.034;2024-03-23T23:54:18;2.30;99.90
20422;DHT22;10370;53.102;18.034;2024-03-23T23:59:39;2.40;99.90
